sensor_id;sensor_type;location;lat;lon;timestamp;temperature;humidity
3628;DHT22;1830;49.000;12.074;2024-01-10T00:01:56;-4.40;99.90
3628;DHT22;1830;49.000;12.074;2024-01-10T00:04:23;-4.30;99.90
3628;DHT22;1830;49.000;12.074;2024-01-10T00:06:49;-4.50;99.90
3628;DHT22;1830;49.000;12.074;2024-01-10T00:09:18;-4.40;99.90
3628;DHT22;1830;49.000;12.074;2024-01-10T00:11:45;-4.40;99.90
3628;DHT22;1830;49.000;12.074;2024-01-10T00:14:12;-4.40;99.90
3628;DHT22;1830;49.000;12.074;2024-01-10T00:16:38;-4.40;99.90
3628;DHT22;1830;49.000;12.074;2024-01-10T00:19:05;-4.40;99.90
3628;DHT22;1830;49.000;12.074;2024-01-10T00:21:32;-4.40;99.90
3628;DHT22;1830;49.000;12.074;2024-01-10T00:24:01;-4.50;99.90
3628;DHT22;1830;49.000;12.074;2024-01-10T00:26:29;-4.50;99.90
3628;DHT22;1830;49.000;12.074;2024-01-10T00:28:55;-4.50;99.90
3628;DHT22;1830;49.000;12.074;2024-01-10T00:31:24;-4.40;99.90
3628;DHT22;1830;49.000;12.074;2024-01-10T00:33:51;-4.40;99.90
3628;DHT22;1830;49.000;12.074;2024-01-10T00:36:17;-4.40;99.90
3628;DHT22;1830;49.000;12.074;2024-01-10T00:38:44;-4.40;99.90
3628;DHT22;1830;49.000;12.074;2024-01-10T00:41:11;-4.40;99.90
3628;DHT22;1830;49.000;12.074;2024-01-10T00:43:39;-4.40;99.90
3628;DHT22;1830;49.000;12.074;2024-01-10T00:46:06;-4.30;99.90
3628;DHT22;1830;49.000;12.074;2024-01-10T00:48:33;-4.30;99.90
3628;DHT22;1830;49.000;12.074;2024-01-10T00:51:00;-4.50;99.90
3628;DHT22;1830;49.000;12.074;2024-01-10T00:53:26;-4.50;99.90
3628;DHT22;1830;49.000;12.074;2024-01-10T00:55:53;-4.40;99.90
3628;DHT22;1830;49.000;12.074;2024-01-10T00:58:20;-4.40;99.90
3628;DHT22;1830;49.000;12.074;2024-01-10T01:00:48;-4.40;99.90
3628;DHT22;1830;49.000;12.074;2024-01-10T01:03:15;-4.40;99.90
3628;DHT22;1830;49.000;12.074;2024-01-10T01:05:42;-4.50;99.90
3628;DHT22;1830;49.000;12.074;2024-01-10T01:08:08;-4.50;99.90
3628;DHT22;1830;49.000;12.074;2024-01-10T01:10:35;-4.60;99.90
3628;DHT22;1830;49.000;12.074;2024-01-10T01:13:02;-4.50;99.90
3628;DHT22;1830;49.000;12.074;2024-01-10T01:15:29;-4.50;99.90
3628;DHT22;1830;49.000;12.074;2024-01-10T01:17:57;-4.50;99.90
3628;DHT22;1830;49.000;12.074;2024-01-10T01:20:24;-4.50;99.90
3628;DHT22;1830;49.000;12.074;2024-01-10T01:22:51;-4.40;99.90
3628;DHT22;1830;49.000;12.074;2024-01-10T01:25:18;-4.40;99.90
3628;DHT22;1830;49.000;12.074;2024-01-10T01:27:45;-4.50;99.90
3628;DHT22;1830;49.000;12.074;2024-01-10T01:30:12;-4.60;99.90
3628;DHT22;1830;49.000;12.074;2024-01-10T01:32:39;-4.60;99.90
3628;DHT22;1830;49.000;12.074;2024-01-10T01:35:07;-4.50;99.90
3628;DHT22;1830;49.000;12.074;2024-01-10T01:37:34;-4.50;99.90
3628;DHT22;1830;49.000;12.074;2024-01-10T01:40:00;-4.50;99.90
3628;DHT22;1830;49.000;12.074;2024-01-10T01:42:27;-4.40;99.90
3628;DHT22;1830;49.000;12.074;2024-01-10T01:44:54;-4.50;99.90
3628;DHT22;1830;49.000;12.074;2024-01-10T01:47:21;-4.60;99.90
3628;DHT22;1830;49.000;12.074;2024-01-10T01:49:48;-4.60;99.90
3628;DHT22;1830;49.000;12.074;2024-01-10T01:52:16;-4.60;99.90
3628;DHT22;1830;49.000;12.074;2024-01-10T01:54:43;-4.60;99.90
3628;DHT22;1830;49.000;12.074;2024-01-10T01:57:09;-4.50;99.90
3628;DHT22;1830;49.000;12.074;2024-01-10T01:59:36;-4.60;99.90
3628;DHT22;1830;49.000;12.074;2024-01-10T02:02:04;-4.60;99.90
3628;DHT22;1830;49.000;12.074;2024-01-10T02:04:31;-4.60;99.90
3628;DHT22;1830;49.000;12.074;2024-01-10T02:06:59;-4.50;99.90
3628;DHT22;1830;49.000;12.074;2024-01-10T02:09:27;-4.50;99.90
3628;DHT22;1830;49.000;12.074;2024-01-10T02:11:54;-4.60;99.90
3628;DHT22;1830;49.000;12.074;2024-01-10T02:14:21;-4.50;99.90
3628;DHT22;1830;49.000;12.074;2024-01-10T02:16:48;-4.40;99.90
3628;DHT22;1830;49.000;12.074;2024-01-10T02:19:19;-4.50;99.90
3628;DHT22;1830;49.000;12.074;2024-01-10T02:21:46;-4.60;99.90
3628;DHT22;1830;49.000;12.074;2024-01-10T02:24:13;-4.60;99.90
3628;DHT22;1830;49.000;12.074;2024-01-10T02:26:41;-4.60;99.90
3628;DHT22;1830;49.000;12.074;2024-01-10T02:29:08;-4.70;99.90
3628;DHT22;1830;49.000;12.074;2024-01-10T02:31:35;-4.60;99.90
3628;DHT22;1830;49.000;12.074;2024-01-10T02:34:01;-4.60;99.90
3628;DHT22;1830;49.000;12.074;2024-01-10T02:36:28;-4.60;99.90
3628;DHT22;1830;49.000;12.074;2024-01-10T02:38:55;-4.70;99.90
3628;DHT22;1830;49.000;12.074;2024-01-10T02:41:23;-4.70;99.90
3628;DHT22;1830;49.000;12.074;2024-01-10T02:43:51;-4.70;99.90
3628;DHT22;1830;49.000;12.074;2024-01-10T02:46:18;-4.70;99.90
3628;DHT22;1830;49.000;12.074;2024-01-10T02:48:48;-4.80;99.90
3628;DHT22;1830;49.000;12.074;2024-01-10T02:51:14;-4.90;99.90
3628;DHT22;1830;49.000;12.074;2024-01-10T02:53:41;-4.90;99.90
3628;DHT22;1830;49.000;12.074;2024-01-10T02:56:08;-4.80;99.90
3628;DHT22;1830;49.000;12.074;2024-01-10T02:58:35;-4.80;99.90
3628;DHT22;1830;49.000;12.074;2024-01-10T03:01:03;-4.90;99.90
3628;DHT22;1830;49.000;12.074;2024-01-10T03:03:30;-4.90;99.90
3628;DHT22;1830;49.000;12.074;2024-01-10T03:05:57;-4.80;99.90
3628;DHT22;1830;49.000;12.074;2024-01-10T03:08:24;-4.90;99.90
3628;DHT22;1830;49.000;12.074;2024-01-10T03:10:50;-4.90;99.90
3628;DHT22;1830;49.000;12.074;2024-01-10T03:13:17;-4.80;99.90
3628;DHT22;1830;49.000;12.074;2024-01-10T03:15:44;-4.80;99.90
3628;DHT22;1830;49.000;12.074;2024-01-10T03:18:12;-4.80;99.90
3628;DHT22;1830;49.000;12.074;2024-01-10T03:20:39;-4.90;99.90
3628;DHT22;1830;49.000;12.074;2024-01-10T03:23:05;-4.90;99.90
3628;DHT22;1830;49.000;12.074;2024-01-10T03:25:32;-4.90;99.90
3628;DHT22;1830;49.000;12.074;2024-01-10T03:27:59;-4.90;99.90
3628;DHT22;1830;49.000;12.074;2024-01-10T03:30:26;-4.90;99.90
3628;DHT22;1830;49.000;12.074;2024-01-10T03:32:52;-4.90;99.90
3628;DHT22;1830;49.000;12.074;2024-01-10T03:35:21;-4.90;99.90
3628;DHT22;1830;49.000;12.074;2024-01-10T03:37:47;-4.90;99.90
3628;DHT22;1830;49.000;12.074;2024-01-10T03:40:14;-4.90;99.90
3628;DHT22;1830;49.000;12.074;2024-01-10T03:42:41;-4.80;99.90
3628;DHT22;1830;49.000;12.074;2024-01-10T03:45:09;-4.80;99.90
3628;DHT22;1830;49.000;12.074;2024-01-10T03:47:36;-4.70;99.90
3628;DHT22;1830;49.000;12.074;2024-01-10T03:50:03;-4.70;99.90
3628;DHT22;1830;49.000;12.074;2024-01-10T03:52:32;-4.80;99.90
3628;DHT22;1830;49.000;12.074;2024-01-10T03:54:59;-4.80;99.90
3628;DHT22;1830;49.000;12.074;2024-01-10T03:57:26;-4.80;99.90
3628;DHT22;1830;49.000;12.074;2024-01-10T03:59:52;-4.80;99.90
3628;DHT22;1830;49.000;12.074;2024-01-10T04:02:19;-4.80;99.90
3628;DHT22;1830;49.000;12.074;2024-01-10T04:04:46;-4.90;99.90
3628;DHT22;1830;49.000;12.074;2024-01-10T04:07:13;-5.00;99.90
3628;DHT22;1830;49.000;12.074;2024-01-10T04:09:41;-4.90;99.90
3628;DHT22;1830;49.000;12.074;2024-01-10T04:12:08;-4.80;99.90
3628;DHT22;1830;49.000;12.074;2024-01-10T04:14:35;-4.80;99.90
3628;DHT22;1830;49.000;12.074;2024-01-10T04:17:02;-4.90;99.90
3628;DHT22;1830;49.000;12.074;2024-01-10T04:19:30;-4.80;99.90
3628;DHT22;1830;49.000;12.074;2024-01-10T04:21:57;-4.80;99.90
3628;DHT22;1830;49.000;12.074;2024-01-10T04:24:28;-4.80;99.90
3628;DHT22;1830;49.000;12.074;2024-01-10T04:26:56;-4.80;99.90
3628;DHT22;1830;49.000;12.074;2024-01-10T04:29:23;-4.80;99.90
3628;DHT22;1830;49.000;12.074;2024-01-10T04:31:55;-5.00;99.90
3628;DHT22;1830;49.000;12.074;2024-01-10T04:34:22;-4.90;99.90
3628;DHT22;1830;49.000;12.074;2024-01-10T04:36:50;-4.80;99.90
3628;DHT22;1830;49.000;12.074;2024-01-10T04:39:17;-4.90;99.90
3628;DHT22;1830;49.000;12.074;2024-01-10T04:41:44;-4.90;99.90
3628;DHT22;1830;49.000;12.074;2024-01-10T04:44:12;-5.00;99.90
3628;DHT22;1830;49.000;12.074;2024-01-10T04:46:39;-5.00;99.90
3628;DHT22;1830;49.000;12.074;2024-01-10T04:49:06;-5.00;99.90
3628;DHT22;1830;49.000;12.074;2024-01-10T04:51:33;-4.90;99.90
3628;DHT22;1830;49.000;12.074;2024-01-10T04:54:00;-4.90;99.90
3628;DHT22;1830;49.000;12.074;2024-01-10T04:56:27;-4.90;99.90
3628;DHT22;1830;49.000;12.074;2024-01-10T04:58:54;-4.90;99.90
3628;DHT22;1830;49.000;12.074;2024-01-10T05:01:22;-5.00;99.90
3628;DHT22;1830;49.000;12.074;2024-01-10T05:03:49;-5.00;99.90
3628;DHT22;1830;49.000;12.074;2024-01-10T05:06:15;-5.00;99.90
3628;DHT22;1830;49.000;12.074;2024-01-10T05:08:42;-5.10;99.90
3628;DHT22;1830;49.000;12.074;2024-01-10T05:11:09;-5.10;99.90
3628;DHT22;1830;49.000;12.074;2024-01-10T05:13:36;-5.10;99.90
3628;DHT22;1830;49.000;12.074;2024-01-10T05:16:03;-5.20;99.90
3628;DHT22;1830;49.000;12.074;2024-01-10T05:18:32;-5.20;99.90
3628;DHT22;1830;49.000;12.074;2024-01-10T05:21:01;-5.10;99.90
3628;DHT22;1830;49.000;12.074;2024-01-10T05:23:29;-5.20;99.90
3628;DHT22;1830;49.000;12.074;2024-01-10T05:25:56;-5.10;99.90
3628;DHT22;1830;49.000;12.074;2024-01-10T05:28:23;-5.10;99.90
3628;DHT22;1830;49.000;12.074;2024-01-10T05:30:50;-5.30;99.90
3628;DHT22;1830;49.000;12.074;2024-01-10T05:33:17;-5.20;99.90
3628;DHT22;1830;49.000;12.074;2024-01-10T05:35:45;-5.20;99.90
3628;DHT22;1830;49.000;12.074;2024-01-10T05:38:12;-5.10;99.90
3628;DHT22;1830;49.000;12.074;2024-01-10T05:40:39;-5.10;99.90
3628;DHT22;1830;49.000;12.074;2024-01-10T05:43:07;-5.10;99.90
3628;DHT22;1830;49.000;12.074;2024-01-10T05:45:35;-5.10;99.90
3628;DHT22;1830;49.000;12.074;2024-01-10T05:48:03;-5.20;99.90
3628;DHT22;1830;49.000;12.074;2024-01-10T05:50:30;-5.20;99.90
3628;DHT22;1830;49.000;12.074;2024-01-10T05:52:58;-5.10;99.90
3628;DHT22;1830;49.000;12.074;2024-01-10T05:55:25;-5.10;99.90
3628;DHT22;1830;49.000;12.074;2024-01-10T05:57:51;-5.10;99.90
3628;DHT22;1830;49.000;12.074;2024-01-10T06:00:18;-5.10;99.90
3628;DHT22;1830;49.000;12.074;2024-01-10T06:02:46;-5.10;99.90
3628;DHT22;1830;49.000;12.074;2024-01-10T06:05:13;-5.10;99.90
3628;DHT22;1830;49.000;12.074;2024-01-10T06:07:40;-5.10;99.90
3628;DHT22;1830;49.000;12.074;2024-01-10T06:10:16;-5.30;99.90
3628;DHT22;1830;49.000;12.074;2024-01-10T06:12:43;-5.20;99.90
3628;DHT22;1830;49.000;12.074;2024-01-10T06:15:10;-5.20;99.90
3628;DHT22;1830;49.000;12.074;2024-01-10T06:17:36;-5.20;99.90
3628;DHT22;1830;49.000;12.074;2024-01-10T06:20:04;-5.20;99.90
3628;DHT22;1830;49.000;12.074;2024-01-10T06:22:32;-5.20;99.90
3628;DHT22;1830;49.000;12.074;2024-01-10T06:24:59;-5.20;99.90
3628;DHT22;1830;49.000;12.074;2024-01-10T06:27:27;-5.30;99.90
3628;DHT22;1830;49.000;12.074;2024-01-10T06:29:57;-5.30;99.90
3628;DHT22;1830;49.000;12.074;2024-01-10T06:32:24;-5.30;99.90
3628;DHT22;1830;49.000;12.074;2024-01-10T06:34:51;-5.30;99.90
3628;DHT22;1830;49.000;12.074;2024-01-10T06:37:18;-5.30;99.90
3628;DHT22;1830;49.000;12.074;2024-01-10T06:39:45;-5.40;99.90
3628;DHT22;1830;49.000;12.074;2024-01-10T06:42:12;-5.50;99.90
3628;DHT22;1830;49.000;12.074;2024-01-10T06:44:40;-5.50;99.90
3628;DHT22;1830;49.000;12.074;2024-01-10T06:47:07;-5.50;99.90
3628;DHT22;1830;49.000;12.074;2024-01-10T06:49:34;-5.50;99.90
3628;DHT22;1830;49.000;12.074;2024-01-10T06:52:01;-5.50;99.90
3628;DHT22;1830;49.000;12.074;2024-01-10T06:54:28;-5.40;99.90
3628;DHT22;1830;49.000;12.074;2024-01-10T06:56:55;-5.50;99.90
3628;DHT22;1830;49.000;12.074;2024-01-10T06:59:21;-5.60;99.90
3628;DHT22;1830;49.000;12.074;2024-01-10T07:01:52;-5.60;99.90
3628;DHT22;1830;49.000;12.074;2024-01-10T07:04:21;-5.60;99.90
3628;DHT22;1830;49.000;12.074;2024-01-10T07:06:49;-5.60;99.90
3628;DHT22;1830;49.000;12.074;2024-01-10T07:09:16;-5.60;99.90
3628;DHT22;1830;49.000;12.074;2024-01-10T07:11:45;-5.70;99.90
3628;DHT22;1830;49.000;12.074;2024-01-10T07:14:13;-5.70;99.90
3628;DHT22;1830;49.000;12.074;2024-01-10T07:16:40;-5.80;99.90
3628;DHT22;1830;49.000;12.074;2024-01-10T07:19:09;-5.80;99.90
3628;DHT22;1830;49.000;12.074;2024-01-10T07:21:39;-5.80;99.90
3628;DHT22;1830;49.000;12.074;2024-01-10T07:24:07;-5.80;99.90
3628;DHT22;1830;49.000;12.074;2024-01-10T07:26:35;-5.70;99.90
3628;DHT22;1830;49.000;12.074;2024-01-10T07:29:02;-5.70;99.90
3628;DHT22;1830;49.000;12.074;2024-01-10T07:31:29;-5.70;99.90
3628;DHT22;1830;49.000;12.074;2024-01-10T07:33:56;-5.70;99.90
3628;DHT22;1830;49.000;12.074;2024-01-10T07:36:25;-5.70;99.90
3628;DHT22;1830;49.000;12.074;2024-01-10T07:38:52;-5.90;99.90
3628;DHT22;1830;49.000;12.074;2024-01-10T07:41:19;-5.80;99.90
3628;DHT22;1830;49.000;12.074;2024-01-10T07:43:45;-5.80;99.90
3628;DHT22;1830;49.000;12.074;2024-01-10T07:46:12;-5.80;99.90
3628;DHT22;1830;49.000;12.074;2024-01-10T07:48:40;-5.80;99.90
3628;DHT22;1830;49.000;12.074;2024-01-10T07:51:07;-5.70;99.90
3628;DHT22;1830;49.000;12.074;2024-01-10T07:53:36;-5.70;99.90
3628;DHT22;1830;49.000;12.074;2024-01-10T07:56:03;-5.60;99.90
3628;DHT22;1830;49.000;12.074;2024-01-10T07:58:30;-5.50;99.90
3628;DHT22;1830;49.000;12.074;2024-01-10T08:00:57;-5.50;99.90
3628;DHT22;1830;49.000;12.074;2024-01-10T08:03:23;-5.40;99.90
3628;DHT22;1830;49.000;12.074;2024-01-10T08:05:50;-5.50;99.90
3628;DHT22;1830;49.000;12.074;2024-01-10T08:08:17;-5.40;99.90
3628;DHT22;1830;49.000;12.074;2024-01-10T08:10:45;-5.40;99.90
3628;DHT22;1830;49.000;12.074;2024-01-10T08:13:12;-5.30;99.90
3628;DHT22;1830;49.000;12.074;2024-01-10T08:15:49;-5.20;99.90
3628;DHT22;1830;49.000;12.074;2024-01-10T08:18:16;-5.20;99.90
3628;DHT22;1830;49.000;12.074;2024-01-10T08:20:43;-5.20;99.90
3628;DHT22;1830;49.000;12.074;2024-01-10T08:23:10;-5.20;99.90
3628;DHT22;1830;49.000;12.074;2024-01-10T08:25:36;-5.10;99.90
3628;DHT22;1830;49.000;12.074;2024-01-10T08:28:07;-5.10;99.90
3628;DHT22;1830;49.000;12.074;2024-01-10T08:30:35;-5.00;99.90
3628;DHT22;1830;49.000;12.074;2024-01-10T08:33:02;-4.90;99.90
3628;DHT22;1830;49.000;12.074;2024-01-10T08:35:30;-4.90;99.90
3628;DHT22;1830;49.000;12.074;2024-01-10T08:37:56;-4.90;99.90
3628;DHT22;1830;49.000;12.074;2024-01-10T08:40:24;-4.80;99.90
3628;DHT22;1830;49.000;12.074;2024-01-10T08:42:52;-4.80;99.90
3628;DHT22;1830;49.000;12.074;2024-01-10T08:45:20;-4.70;99.90
3628;DHT22;1830;49.000;12.074;2024-01-10T08:47:47;-4.70;99.90
3628;DHT22;1830;49.000;12.074;2024-01-10T08:50:14;-4.70;99.90
3628;DHT22;1830;49.000;12.074;2024-01-10T08:52:41;-4.60;99.90
3628;DHT22;1830;49.000;12.074;2024-01-10T08:55:08;-4.60;99.90
3628;DHT22;1830;49.000;12.074;2024-01-10T08:57:35;-4.60;99.90
3628;DHT22;1830;49.000;12.074;2024-01-10T09:00:02;-4.60;99.90
3628;DHT22;1830;49.000;12.074;2024-01-10T09:02:33;-4.60;99.90
3628;DHT22;1830;49.000;12.074;2024-01-10T09:05:02;-4.60;99.90
3628;DHT22;1830;49.000;12.074;2024-01-10T09:07:29;-4.60;99.90
3628;DHT22;1830;49.000;12.074;2024-01-10T09:09:57;-4.50;99.90
3628;DHT22;1830;49.000;12.074;2024-01-10T09:12:23;-4.50;99.90
3628;DHT22;1830;49.000;12.074;2024-01-10T09:14:51;-4.40;99.90
3628;DHT22;1830;49.000;12.074;2024-01-10T09:17:17;-4.40;99.90
3628;DHT22;1830;49.000;12.074;2024-01-10T09:19:46;-4.30;99.90
3628;DHT22;1830;49.000;12.074;2024-01-10T09:22:12;-4.30;99.90
3628;DHT22;1830;49.000;12.074;2024-01-10T09:24:39;-4.20;99.90
3628;DHT22;1830;49.000;12.074;2024-01-10T09:27:06;-4.20;99.90
3628;DHT22;1830;49.000;12.074;2024-01-10T09:29:35;-4.10;99.90
3628;DHT22;1830;49.000;12.074;2024-01-10T09:32:02;-4.10;99.90
3628;DHT22;1830;49.000;12.074;2024-01-10T09:34:29;-4.00;99.90
3628;DHT22;1830;49.000;12.074;2024-01-10T09:36:59;-4.00;99.90
3628;DHT22;1830;49.000;12.074;2024-01-10T09:39:27;-3.90;99.90
3628;DHT22;1830;49.000;12.074;2024-01-10T09:41:53;-3.90;99.90
3628;DHT22;1830;49.000;12.074;2024-01-10T09:44:21;-3.90;99.90
3628;DHT22;1830;49.000;12.074;2024-01-10T09:46:51;-3.80;99.90
3628;DHT22;1830;49.000;12.074;2024-01-10T09:49:18;-3.70;99.90
3628;DHT22;1830;49.000;12.074;2024-01-10T09:51:48;-3.50;99.90
3628;DHT22;1830;49.000;12.074;2024-01-10T09:54:17;-3.50;99.90
3628;DHT22;1830;49.000;12.074;2024-01-10T09:56:45;-3.50;99.90
3628;DHT22;1830;49.000;12.074;2024-01-10T09:59:12;-3.40;99.90
3628;DHT22;1830;49.000;12.074;2024-01-10T10:01:39;-3.50;99.90
3628;DHT22;1830;49.000;12.074;2024-01-10T10:04:07;-3.50;99.90
3628;DHT22;1830;49.000;12.074;2024-01-10T10:06:35;-3.50;99.90
3628;DHT22;1830;49.000;12.074;2024-01-10T10:09:02;-3.40;99.90
3628;DHT22;1830;49.000;12.074;2024-01-10T10:11:30;-3.30;99.90
3628;DHT22;1830;49.000;12.074;2024-01-10T10:14:13;-3.20;99.90
3628;DHT22;1830;49.000;12.074;2024-01-10T10:16:40;-3.20;99.90
3628;DHT22;1830;49.000;12.074;2024-01-10T10:19:07;-3.20;99.90
3628;DHT22;1830;49.000;12.074;2024-01-10T10:21:37;-3.30;99.90
3628;DHT22;1830;49.000;12.074;2024-01-10T10:24:04;-3.20;99.90
3628;DHT22;1830;49.000;12.074;2024-01-10T10:26:33;-3.20;99.90
3628;DHT22;1830;49.000;12.074;2024-01-10T10:29:01;-3.20;99.90
3628;DHT22;1830;49.000;12.074;2024-01-10T10:31:28;-3.00;99.90
3628;DHT22;1830;49.000;12.074;2024-01-10T10:33:59;-2.90;99.90
3628;DHT22;1830;49.000;12.074;2024-01-10T10:36:26;-2.90;99.90
3628;DHT22;1830;49.000;12.074;2024-01-10T10:38:52;-2.90;99.90
3628;DHT22;1830;49.000;12.074;2024-01-10T10:41:20;-2.90;99.90
3628;DHT22;1830;49.000;12.074;2024-01-10T10:43:49;-2.90;99.90
3628;DHT22;1830;49.000;12.074;2024-01-10T10:46:17;-3.00;99.90
3628;DHT22;1830;49.000;12.074;2024-01-10T10:48:48;-3.10;99.90
3628;DHT22;1830;49.000;12.074;2024-01-10T10:51:17;-3.10;99.90
3628;DHT22;1830;49.000;12.074;2024-01-10T10:53:45;-3.00;99.90
3628;DHT22;1830;49.000;12.074;2024-01-10T10:56:14;-2.90;99.90
3628;DHT22;1830;49.000;12.074;2024-01-10T10:58:42;-2.90;99.90
3628;DHT22;1830;49.000;12.074;2024-01-10T11:01:12;-2.90;99.90
3628;DHT22;1830;49.000;12.074;2024-01-10T11:03:40;-3.00;99.90
3628;DHT22;1830;49.000;12.074;2024-01-10T11:06:08;-2.90;99.90
3628;DHT22;1830;49.000;12.074;2024-01-10T11:08:37;-2.90;99.90
3628;DHT22;1830;49.000;12.074;2024-01-10T11:11:07;-2.90;99.90
3628;DHT22;1830;49.000;12.074;2024-01-10T11:13:57;-2.70;99.90
3628;DHT22;1830;49.000;12.074;2024-01-10T11:16:45;-2.70;99.90
3628;DHT22;1830;49.000;12.074;2024-01-10T11:19:35;-2.70;99.90
3628;DHT22;1830;49.000;12.074;2024-01-10T11:22:15;-2.80;99.90
3628;DHT22;1830;49.000;12.074;2024-01-10T11:24:44;-2.70;99.90
3628;DHT22;1830;49.000;12.074;2024-01-10T11:27:12;-2.70;99.90
3628;DHT22;1830;49.000;12.074;2024-01-10T11:29:40;-2.60;99.90
3628;DHT22;1830;49.000;12.074;2024-01-10T11:32:13;-2.60;99.90
3628;DHT22;1830;49.000;12.074;2024-01-10T11:34:49;-2.70;99.90
3628;DHT22;1830;49.000;12.074;2024-01-10T11:37:16;-2.50;99.90
3628;DHT22;1830;49.000;12.074;2024-01-10T11:39:44;-2.50;99.90
3628;DHT22;1830;49.000;12.074;2024-01-10T11:42:11;-2.60;99.90
3628;DHT22;1830;49.000;12.074;2024-01-10T11:44:50;-2.50;99.90
3628;DHT22;1830;49.000;12.074;2024-01-10T11:47:19;-2.50;99.90
3628;DHT22;1830;49.000;12.074;2024-01-10T11:49:56;-2.50;99.90
3628;DHT22;1830;49.000;12.074;2024-01-10T11:52:25;-2.40;99.90
3628;DHT22;1830;49.000;12.074;2024-01-10T11:54:57;-2.30;99.90
3628;DHT22;1830;49.000;12.074;2024-01-10T11:57:27;-2.20;99.90
3628;DHT22;1830;49.000;12.074;2024-01-10T11:59:55;-2.20;99.90
3628;DHT22;1830;49.000;12.074;2024-01-10T12:02:26;-2.20;99.90
3628;DHT22;1830;49.000;12.074;2024-01-10T12:04:53;-2.30;99.90
3628;DHT22;1830;49.000;12.074;2024-01-10T12:07:21;-2.20;99.90
3628;DHT22;1830;49.000;12.074;2024-01-10T12:09:49;-2.10;99.90
3628;DHT22;1830;49.000;12.074;2024-01-10T12:12:16;-2.10;99.90
3628;DHT22;1830;49.000;12.074;2024-01-10T12:14:43;-1.70;99.90
3628;DHT22;1830;49.000;12.074;2024-01-10T12:17:10;-1.90;99.90
3628;DHT22;1830;49.000;12.074;2024-01-10T12:19:38;-2.10;99.90
3628;DHT22;1830;49.000;12.074;2024-01-10T12:22:05;-2.10;99.90
3628;DHT22;1830;49.000;12.074;2024-01-10T12:24:32;-2.00;99.90
3628;DHT22;1830;49.000;12.074;2024-01-10T12:26:59;-1.90;99.90
3628;DHT22;1830;49.000;12.074;2024-01-10T12:29:26;-2.00;99.90
3628;DHT22;1830;49.000;12.074;2024-01-10T12:31:53;-1.80;99.90
3628;DHT22;1830;49.000;12.074;2024-01-10T12:34:20;-2.00;99.90
3628;DHT22;1830;49.000;12.074;2024-01-10T12:36:49;-2.00;99.90
3628;DHT22;1830;49.000;12.074;2024-01-10T12:39:20;-1.90;99.90
3628;DHT22;1830;49.000;12.074;2024-01-10T12:41:49;-1.80;99.90
3628;DHT22;1830;49.000;12.074;2024-01-10T12:44:16;-1.70;99.90
3628;DHT22;1830;49.000;12.074;2024-01-10T12:46:52;-1.60;99.90
3628;DHT22;1830;49.000;12.074;2024-01-10T12:49:19;-1.60;99.90
3628;DHT22;1830;49.000;12.074;2024-01-10T12:51:46;-1.60;99.90
3628;DHT22;1830;49.000;12.074;2024-01-10T12:54:15;-1.60;99.90
3628;DHT22;1830;49.000;12.074;2024-01-10T12:56:42;-1.50;99.90
3628;DHT22;1830;49.000;12.074;2024-01-10T12:59:09;-1.50;99.90
3628;DHT22;1830;49.000;12.074;2024-01-10T13:01:36;-1.50;99.90
3628;DHT22;1830;49.000;12.074;2024-01-10T13:04:03;-1.30;99.90
3628;DHT22;1830;49.000;12.074;2024-01-10T13:06:30;-1.30;99.90
3628;DHT22;1830;49.000;12.074;2024-01-10T13:08:57;-1.20;99.90
3628;DHT22;1830;49.000;12.074;2024-01-10T13:11:25;-1.20;99.90
3628;DHT22;1830;49.000;12.074;2024-01-10T13:13:53;-1.10;99.90
3628;DHT22;1830;49.000;12.074;2024-01-10T13:16:19;-1.10;99.90
3628;DHT22;1830;49.000;12.074;2024-01-10T13:18:46;-1.00;99.90
3628;DHT22;1830;49.000;12.074;2024-01-10T13:21:13;-1.10;99.90
3628;DHT22;1830;49.000;12.074;2024-01-10T13:23:40;-1.00;99.90
3628;DHT22;1830;49.000;12.074;2024-01-10T13:26:07;-1.10;99.90
3628;DHT22;1830;49.000;12.074;2024-01-10T13:28:36;-1.00;99.90
3628;DHT22;1830;49.000;12.074;2024-01-10T13:31:03;-1.00;99.90
3628;DHT22;1830;49.000;12.074;2024-01-10T13:33:30;-1.00;99.90
3628;DHT22;1830;49.000;12.074;2024-01-10T13:35:57;-1.00;99.90
3628;DHT22;1830;49.000;12.074;2024-01-10T13:38:24;-1.00;99.90
3628;DHT22;1830;49.000;12.074;2024-01-10T13:40:51;-1.00;99.90
3628;DHT22;1830;49.000;12.074;2024-01-10T13:43:19;-1.00;99.90
3628;DHT22;1830;49.000;12.074;2024-01-10T13:45:48;-0.80;99.90
3628;DHT22;1830;49.000;12.074;2024-01-10T13:48:14;-0.90;99.90
3628;DHT22;1830;49.000;12.074;2024-01-10T13:50:41;-0.80;99.90
3628;DHT22;1830;49.000;12.074;2024-01-10T13:53:08;-0.70;99.90
3628;DHT22;1830;49.000;12.074;2024-01-10T13:55:35;-0.70;99.90
3628;DHT22;1830;49.000;12.074;2024-01-10T13:58:02;-0.70;99.90
3628;DHT22;1830;49.000;12.074;2024-01-10T14:00:29;-0.80;99.90
3628;DHT22;1830;49.000;12.074;2024-01-10T14:02:58;-0.90;99.90
3628;DHT22;1830;49.000;12.074;2024-01-10T14:05:26;-0.80;99.90
3628;DHT22;1830;49.000;12.074;2024-01-10T14:07:53;-0.80;99.90
3628;DHT22;1830;49.000;12.074;2024-01-10T14:10:20;-0.90;99.90
3628;DHT22;1830;49.000;12.074;2024-01-10T14:12:47;-0.80;99.90
3628;DHT22;1830;49.000;12.074;2024-01-10T14:15:14;-0.80;99.90
3628;DHT22;1830;49.000;12.074;2024-01-10T14:17:41;-0.80;99.90
3628;DHT22;1830;49.000;12.074;2024-01-10T14:20:10;-0.70;99.90
3628;DHT22;1830;49.000;12.074;2024-01-10T14:22:38;-0.80;99.90
3628;DHT22;1830;49.000;12.074;2024-01-10T14:25:09;-0.80;99.90
3628;DHT22;1830;49.000;12.074;2024-01-10T14:27:37;-0.80;99.90
3628;DHT22;1830;49.000;12.074;2024-01-10T14:30:06;-0.80;99.90
3628;DHT22;1830;49.000;12.074;2024-01-10T14:32:35;-0.80;99.90
3628;DHT22;1830;49.000;12.074;2024-01-10T14:35:02;-0.90;99.90
3628;DHT22;1830;49.000;12.074;2024-01-10T14:37:32;-0.80;99.90
3628;DHT22;1830;49.000;12.074;2024-01-10T14:40:00;-0.80;99.90
3628;DHT22;1830;49.000;12.074;2024-01-10T14:42:28;-0.80;99.90
3628;DHT22;1830;49.000;12.074;2024-01-10T14:44:54;-0.70;99.90
3628;DHT22;1830;49.000;12.074;2024-01-10T14:47:22;-0.70;99.90
3628;DHT22;1830;49.000;12.074;2024-01-10T14:49:49;-0.70;99.90
3628;DHT22;1830;49.000;12.074;2024-01-10T14:52:16;-0.80;99.90
3628;DHT22;1830;49.000;12.074;2024-01-10T14:54:47;-0.70;99.90
3628;DHT22;1830;49.000;12.074;2024-01-10T14:57:14;-0.70;99.90
3628;DHT22;1830;49.000;12.074;2024-01-10T14:59:42;-0.80;99.90
3628;DHT22;1830;49.000;12.074;2024-01-10T15:02:08;-1.00;99.90
3628;DHT22;1830;49.000;12.074;2024-01-10T15:04:38;-1.00;99.90
3628;DHT22;1830;49.000;12.074;2024-01-10T15:07:06;-1.00;99.90
3628;DHT22;1830;49.000;12.074;2024-01-10T15:09:33;-1.10;99.90
3628;DHT22;1830;49.000;12.074;2024-01-10T15:12:04;-1.00;99.90
3628;DHT22;1830;49.000;12.074;2024-01-10T15:14:33;-1.10;99.90
3628;DHT22;1830;49.000;12.074;2024-01-10T15:17:00;-1.20;99.90
3628;DHT22;1830;49.000;12.074;2024-01-10T15:19:29;-1.10;99.90
3628;DHT22;1830;49.000;12.074;2024-01-10T15:21:56;-1.00;99.90
3628;DHT22;1830;49.000;12.074;2024-01-10T15:24:23;-1.20;99.90
3628;DHT22;1830;49.000;12.074;2024-01-10T15:26:50;-1.40;99.90
3628;DHT22;1830;49.000;12.074;2024-01-10T15:29:19;-1.50;99.90
3628;DHT22;1830;49.000;12.074;2024-01-10T15:31:47;-1.50;99.90
3628;DHT22;1830;49.000;12.074;2024-01-10T15:34:14;-1.60;99.90
3628;DHT22;1830;49.000;12.074;2024-01-10T15:36:41;-1.50;99.90
3628;DHT22;1830;49.000;12.074;2024-01-10T15:39:09;-1.50;99.90
3628;DHT22;1830;49.000;12.074;2024-01-10T15:41:37;-1.60;99.90
3628;DHT22;1830;49.000;12.074;2024-01-10T15:44:04;-1.70;99.90
3628;DHT22;1830;49.000;12.074;2024-01-10T15:46:36;-1.70;99.90
3628;DHT22;1830;49.000;12.074;2024-01-10T15:49:03;-1.70;99.90